createdAt,value
2024-03-24T00:00:28.962Z,999.20
2024-03-24T00:01:28.890Z,999.11
2024-03-24T00:02:28.912Z,999.12
2024-03-24T00:03:28.882Z,999.11
2024-03-24T00:04:28.858Z,999.10
2024-03-24T00:05:28.877Z,999.09
2024-03-24T00:06:28.825Z,999.13
2024-03-24T00:07:28.834Z,999.03
2024-03-24T00:08:28.809Z,999.12
2024-03-24T00:09:28.821Z,999.00
2024-03-24T00:10:28.862Z,999.00
2024-03-24T00:11:28.832Z,999.00
2024-03-24T00:12:28.753Z,998.99
2024-03-24T00:13:28.773Z,998.95
2024-03-24T00:14:28.744Z,998.99
2024-03-24T00:15:28.736Z,999.02
2024-03-24T00:16:28.709Z,999.00
2024-03-24T00:17:28.767Z,998.98
2024-03-24T00:18:28.717Z,998.98
2024-03-24T00:19:28.681Z,999.00
2024-03-24T00:20:28.636Z,998.96
2024-03-24T00:21:28.648Z,998.94
2024-03-24T00:22:28.615Z,998.93
2024-03-24T00:23:28.625Z,998.98
2024-03-24T00:24:28.592Z,998.93
2024-03-24T00:25:28.605Z,998.98
2024-03-24T00:26:28.604Z,998.95
2024-03-24T00:27:28.558Z,998.91
2024-03-24T00:28:28.543Z,998.96
2024-03-24T00:29:28.549Z,998.90
2024-03-24T00:30:28.549Z,998.88
2024-03-24T00:31:28.522Z,998.86
2024-03-24T00:32:28.526Z,998.83
2024-03-24T00:33:28.525Z,998.85
2024-03-24T00:34:28.499Z,998.87
2024-03-24T00:35:28.494Z,998.84
2024-03-24T00:36:28.454Z,998.84
2024-03-24T00:37:28.442Z,998.83
2024-03-24T00:38:28.593Z,998.76
2024-03-24T00:39:28.436Z,998.84
2024-03-24T00:40:28.398Z,998.83
2024-03-24T00:41:28.466Z,998.82
2024-03-24T00:42:28.372Z,998.83
2024-03-24T00:43:28.358Z,998.80
2024-03-24T00:44:28.352Z,998.80
2024-03-24T00:45:28.341Z,998.78
2024-03-24T00:46:28.370Z,998.80
2024-03-24T00:47:28.355Z,998.82
2024-03-24T00:48:28.301Z,998.77
2024-03-24T00:49:28.286Z,998.72
2024-03-24T00:50:28.278Z,998.72
2024-03-24T00:51:28.260Z,998.73
2024-03-24T00:52:28.255Z,998.71
2024-03-24T00:53:28.275Z,998.66
2024-03-24T00:54:28.214Z,998.69
2024-03-24T00:55:28.235Z,998.68
2024-03-24T00:56:28.191Z,998.66
2024-03-24T00:57:28.201Z,998.63
2024-03-24T00:58:28.188Z,998.69
2024-03-24T00:59:28.170Z,998.67
2024-03-24T01:00:28.214Z,998.65
2024-03-24T01:01:28.170Z,998.69
2024-03-24T01:02:28.105Z,998.62
2024-03-24T01:03:28.116Z,998.58
2024-03-24T01:04:28.082Z,998.59
2024-03-24T01:05:28.132Z,998.65
2024-03-24T01:06:28.077Z,998.64
2024-03-24T01:07:28.095Z,998.66
2024-03-24T01:08:28.049Z,998.61
2024-03-24T01:09:28.040Z,998.61
2024-03-24T01:10:28.058Z,998.56
2024-03-24T01:11:28.026Z,998.52
2024-03-24T01:12:28.014Z,998.58
2024-03-24T01:13:27.998Z,998.56
2024-03-24T01:14:27.955Z,998.50
2024-03-24T01:15:27.979Z,998.46
2024-03-24T01:16:27.950Z,998.44
2024-03-24T01:17:27.968Z,998.52
2024-03-24T01:18:27.934Z,998.49
2024-03-24T01:19:30.794Z,998.44
2024-03-24T01:20:27.881Z,998.37
2024-03-24T01:21:27.888Z,998.42
2024-03-24T01:22:27.860Z,998.43
2024-03-24T01:23:27.885Z,998.40
2024-03-24T01:24:27.836Z,998.41
2024-03-24T01:25:27.830Z,998.24
2024-03-24T01:26:27.809Z,998.31
2024-03-24T01:27:27.812Z,998.32
2024-03-24T01:28:27.804Z,998.30
2024-03-24T01:29:27.790Z,998.29
2024-03-24T01:30:27.771Z,998.23
2024-03-24T01:31:27.768Z,998.28
2024-03-24T01:32:27.766Z,998.28
2024-03-24T01:33:27.737Z,998.20
2024-03-24T01:34:27.746Z,998.23
2024-03-24T01:35:27.733Z,998.18
2024-03-24T01:36:27.679Z,998.17
2024-03-24T01:37:27.705Z,998.13
2024-03-24T01:38:27.675Z,998.18
2024-03-24T01:39:27.665Z,998.19
2024-03-24T01:40:27.643Z,998.21
2024-03-24T01:41:27.644Z,998.19
2024-03-24T01:42:27.599Z,998.15
2024-03-24T01:43:27.593Z,998.20
2024-03-24T01:44:27.576Z,998.15
2024-03-24T01:45:27.596Z,998.12
2024-03-24T01:46:27.553Z,998.08
2024-03-24T01:47:27.593Z,998.14
2024-03-24T01:48:27.570Z,998.07
2024-03-24T01:49:27.536Z,998.06
2024-03-24T01:50:27.544Z,998.04
2024-03-24T01:51:27.510Z,998.06
2024-03-24T01:52:27.496Z,998.02
2024-03-24T01:53:27.498Z,998.02
2024-03-24T01:54:27.476Z,997.98
2024-03-24T01:55:27.474Z,997.99
2024-03-24T01:56:27.450Z,997.97
2024-03-24T01:57:27.477Z,998.00
2024-03-24T01:58:27.417Z,998.02
2024-03-24T01:59:27.411Z,998.01
2024-03-24T02:00:27.399Z,997.94
2024-03-24T02:01:27.375Z,997.98
2024-03-24T02:02:27.366Z,997.97
2024-03-24T02:03:27.358Z,997.98
2024-03-24T02:04:27.360Z,997.95
2024-03-24T02:05:27.363Z,997.99
2024-03-24T02:06:30.483Z,997.95
2024-03-24T02:07:27.404Z,997.90
2024-03-24T02:08:27.278Z,997.93
2024-03-24T02:09:27.282Z,997.97
2024-03-24T02:10:27.273Z,997.88
2024-03-24T02:11:27.294Z,997.89
2024-03-24T02:12:27.237Z,997.89
2024-03-24T02:13:27.253Z,997.87
2024-03-24T02:14:27.234Z,997.91
2024-03-24T02:15:27.239Z,997.88
2024-03-24T02:16:27.200Z,997.87
2024-03-24T02:17:27.219Z,997.86
2024-03-24T02:18:27.158Z,997.82
2024-03-24T02:19:27.151Z,997.83
2024-03-24T02:20:27.154Z,997.81
2024-03-24T02:21:27.136Z,997.79
2024-03-24T02:22:27.117Z,997.77
2024-03-24T02:23:27.160Z,997.80
2024-03-24T02:24:27.103Z,997.77
2024-03-24T02:25:27.067Z,997.74
2024-03-24T02:26:27.087Z,997.70
2024-03-24T02:27:27.099Z,997.69
2024-03-24T02:28:27.041Z,997.72
2024-03-24T02:29:27.054Z,997.74
2024-03-24T02:30:27.032Z,997.72
2024-03-24T02:31:27.032Z,997.70
2024-03-24T02:32:27.018Z,997.77
2024-03-24T02:33:26.965Z,997.75
2024-03-24T02:34:27.006Z,997.70
2024-03-24T02:35:26.944Z,997.75
2024-03-24T02:36:26.927Z,997.74
2024-03-24T02:37:26.957Z,997.66
2024-03-24T02:38:26.911Z,997.65
2024-03-24T02:39:26.912Z,997.57
2024-03-24T02:40:26.883Z,997.59
2024-03-24T02:41:26.883Z,997.53
2024-03-24T02:42:26.948Z,997.58
2024-03-24T02:43:26.868Z,997.58
2024-03-24T02:44:26.856Z,997.47
2024-03-24T02:45:26.821Z,997.41
2024-03-24T02:46:26.806Z,997.39
2024-03-24T02:47:26.858Z,997.47
2024-03-24T02:48:26.791Z,997.44
2024-03-24T02:49:26.779Z,997.51
2024-03-24T02:50:26.778Z,997.47
2024-03-24T02:51:26.756Z,997.46
2024-03-24T02:52:26.731Z,997.49
2024-03-24T02:53:26.729Z,997.55
2024-03-24T02:54:26.723Z,997.55
2024-03-24T02:55:26.720Z,997.58
2024-03-24T02:56:26.727Z,997.56
2024-03-24T02:57:26.738Z,997.53
2024-03-24T02:58:26.650Z,997.52
2024-03-24T02:59:26.660Z,997.54
2024-03-24T03:00:26.643Z,997.49
2024-03-24T03:01:26.606Z,997.50
2024-03-24T03:02:26.636Z,997.46
2024-03-24T03:03:26.607Z,997.46
2024-03-24T03:04:26.584Z,997.45
2024-03-24T03:05:26.565Z,997.40
2024-03-24T03:06:26.560Z,997.43
2024-03-24T03:07:26.568Z,997.43
2024-03-24T03:08:26.542Z,997.40
2024-03-24T03:09:26.514Z,997.44
2024-03-24T03:10:26.513Z,997.43
2024-03-24T03:11:26.495Z,997.40
2024-03-24T03:12:26.491Z,997.43
2024-03-24T03:13:26.502Z,997.44
2024-03-24T03:14:26.442Z,997.39
2024-03-24T03:15:26.460Z,997.37
2024-03-24T03:16:26.412Z,997.37
2024-03-24T03:17:26.452Z,997.37
2024-03-24T03:18:26.415Z,997.33
2024-03-24T03:19:26.371Z,997.33
2024-03-24T03:20:26.392Z,997.32
2024-03-24T03:21:26.364Z,997.36
2024-03-24T03:22:26.373Z,997.33
2024-03-24T03:23:26.334Z,997.32
2024-03-24T03:24:26.342Z,997.30
2024-03-24T03:25:26.321Z,997.27
2024-03-24T03:26:26.323Z,997.23
2024-03-24T03:27:26.305Z,997.30
2024-03-24T03:28:26.274Z,997.27
2024-03-24T03:29:26.292Z,997.27
2024-03-24T03:30:26.255Z,997.27
2024-03-24T03:31:26.222Z,997.28
2024-03-24T03:32:26.236Z,997.29
2024-03-24T03:33:26.199Z,997.24
2024-03-24T03:34:26.255Z,997.22
2024-03-24T03:35:26.186Z,997.18
2024-03-24T03:36:26.180Z,997.19
2024-03-24T03:37:26.206Z,997.19
2024-03-24T03:38:26.143Z,997.23
2024-03-24T03:39:26.173Z,997.22
2024-03-24T03:40:26.114Z,997.19
2024-03-24T03:41:26.105Z,997.20
2024-03-24T03:42:26.086Z,997.21
2024-03-24T03:43:26.089Z,997.23
2024-03-24T03:44:26.066Z,997.20
2024-03-24T03:45:26.055Z,997.23
2024-03-24T03:46:26.050Z,997.18
2024-03-24T03:47:26.032Z,997.22
2024-03-24T03:48:26.029Z,997.19
2024-03-24T03:49:26.008Z,997.15
2024-03-24T03:50:32.002Z,997.20
2024-03-24T03:51:25.959Z,997.17
2024-03-24T03:52:25.964Z,997.13
2024-03-24T03:53:26.207Z,997.12
2024-03-24T03:54:25.940Z,997.17
2024-03-24T03:55:25.937Z,997.13
2024-03-24T03:56:25.911Z,997.11
2024-03-24T03:57:25.917Z,997.10
2024-03-24T03:58:25.898Z,997.05
2024-03-24T03:59:25.860Z,997.16
2024-03-24T04:00:25.871Z,997.13
2024-03-24T04:01:25.852Z,997.17
2024-03-24T04:02:25.854Z,997.13
2024-03-24T04:03:25.822Z,997.16
2024-03-24T04:04:25.824Z,997.10
2024-03-24T04:05:25.796Z,997.15
2024-03-24T04:06:25.790Z,997.14
2024-03-24T04:07:25.775Z,997.09
2024-03-24T04:08:25.788Z,997.09
2024-03-24T04:09:25.740Z,997.04
2024-03-24T04:10:25.725Z,997.12
2024-03-24T04:11:25.716Z,997.10
2024-03-24T04:12:25.714Z,997.07
2024-03-24T04:13:25.697Z,997.05
2024-03-24T04:14:25.694Z,997.07
2024-03-24T04:15:25.660Z,997.04
2024-03-24T04:16:25.665Z,997.03
2024-03-24T04:17:25.684Z,997.02
2024-03-24T04:18:25.628Z,996.96
2024-03-24T04:19:25.617Z,997.01
2024-03-24T04:20:25.594Z,997.00
2024-03-24T04:21:25.599Z,997.00
2024-03-24T04:22:25.592Z,996.96
2024-03-24T04:23:25.585Z,997.00
2024-03-24T04:24:25.565Z,996.89
2024-03-24T04:25:25.547Z,996.94
2024-03-24T04:26:25.516Z,996.97
2024-03-24T04:27:25.521Z,996.94
2024-03-24T04:28:25.501Z,996.94
2024-03-24T04:29:25.499Z,996.89
2024-03-24T04:30:25.502Z,996.88
2024-03-24T04:31:25.470Z,996.92
2024-03-24T04:32:25.493Z,996.91
2024-03-24T04:33:25.449Z,996.87
2024-03-24T04:34:25.439Z,996.91
2024-03-24T04:35:25.442Z,996.84
2024-03-24T04:36:25.442Z,996.87
2024-03-24T04:37:25.410Z,996.89
2024-03-24T04:38:25.375Z,996.83
2024-03-24T04:39:25.374Z,996.87
2024-03-24T04:40:25.366Z,996.85
2024-03-24T04:41:25.325Z,996.86
2024-03-24T04:42:25.314Z,996.89
2024-03-24T04:43:25.300Z,996.88
2024-03-24T04:44:25.297Z,996.83
2024-03-24T04:45:25.270Z,996.87
2024-03-24T04:46:25.279Z,996.81
2024-03-24T04:47:25.286Z,996.82
2024-03-24T04:48:25.252Z,996.85
2024-03-24T04:49:25.235Z,996.89
2024-03-24T04:50:25.235Z,996.84
2024-03-24T04:51:25.195Z,996.78
2024-03-24T04:52:25.192Z,996.83
2024-03-24T04:53:25.207Z,996.86
2024-03-24T04:54:25.178Z,996.85
2024-03-24T04:55:25.153Z,996.77
2024-03-24T04:56:25.163Z,996.74
2024-03-24T04:57:25.137Z,996.80
2024-03-24T04:58:25.125Z,996.77
2024-03-24T04:59:25.102Z,996.80
2024-03-24T05:00:25.102Z,996.80
2024-03-24T05:01:25.090Z,996.81
2024-03-24T05:02:25.072Z,996.81
2024-03-24T05:03:25.081Z,996.75
2024-03-24T05:04:25.046Z,996.78
2024-03-24T05:05:25.029Z,996.75
2024-03-24T05:06:25.022Z,996.74
2024-03-24T05:07:24.991Z,996.81
2024-03-24T05:08:25.006Z,996.79
2024-03-24T05:09:24.998Z,996.83
2024-03-24T05:10:24.979Z,996.74
2024-03-24T05:11:24.942Z,996.76
2024-03-24T05:12:24.938Z,996.74
2024-03-24T05:13:24.947Z,996.77
2024-03-24T05:14:24.926Z,996.75
2024-03-24T05:15:24.909Z,996.77
2024-03-24T05:16:24.898Z,996.77
2024-03-24T05:17:24.877Z,996.70
2024-03-24T05:18:24.857Z,996.75
2024-03-24T05:19:24.854Z,996.68
2024-03-24T05:20:24.868Z,996.64
2024-03-24T05:21:24.827Z,996.66
2024-03-24T05:22:24.804Z,996.67
2024-03-24T05:23:24.791Z,996.66
2024-03-24T05:24:24.795Z,996.64
2024-03-24T05:25:24.766Z,996.67
2024-03-24T05:26:24.762Z,996.62
2024-03-24T05:27:24.756Z,996.60
2024-03-24T05:28:25.732Z,996.62
2024-03-24T05:29:24.711Z,996.71
2024-03-24T05:30:24.709Z,996.68
2024-03-24T05:31:24.688Z,996.64
2024-03-24T05:32:24.713Z,996.63
2024-03-24T05:33:24.663Z,996.63
2024-03-24T05:34:24.663Z,996.67
2024-03-24T05:35:24.634Z,996.70
2024-03-24T05:36:24.643Z,996.63
2024-03-24T05:37:24.622Z,996.65
2024-03-24T05:38:24.597Z,996.66
2024-03-24T05:39:24.602Z,996.59
2024-03-24T05:40:24.594Z,996.60
2024-03-24T05:41:24.572Z,996.68
2024-03-24T05:42:24.564Z,996.67
2024-03-24T05:43:24.525Z,996.62
2024-03-24T05:44:24.522Z,996.63
2024-03-24T05:45:24.525Z,996.65
2024-03-24T05:46:24.493Z,996.68
2024-03-24T05:47:24.505Z,996.64
2024-03-24T05:48:24.515Z,996.61
2024-03-24T05:49:24.482Z,996.62
2024-03-24T05:50:24.465Z,996.61
2024-03-24T05:51:24.427Z,996.61
2024-03-24T05:52:24.464Z,996.60
2024-03-24T05:53:24.400Z,996.69
2024-03-24T05:54:24.419Z,996.62
2024-03-24T05:55:24.398Z,996.63
2024-03-24T05:56:24.365Z,996.64
2024-03-24T05:57:24.359Z,996.60
2024-03-24T05:58:24.385Z,996.60
2024-03-24T05:59:24.343Z,996.64
2024-03-24T06:00:24.382Z,996.67
2024-03-24T06:01:24.319Z,996.59
2024-03-24T06:02:24.295Z,996.67
2024-03-24T06:03:24.274Z,996.64
2024-03-24T06:04:24.300Z,996.64
2024-03-24T06:05:24.258Z,996.62
2024-03-24T06:06:24.239Z,996.63
2024-03-24T06:07:24.222Z,996.65
2024-03-24T06:08:24.225Z,996.59
2024-03-24T06:09:24.243Z,996.57
2024-03-24T06:10:24.233Z,996.60
2024-03-24T06:11:24.191Z,996.61
2024-03-24T06:12:24.182Z,996.61
2024-03-24T06:13:24.161Z,996.57
2024-03-24T06:14:24.168Z,996.60
2024-03-24T06:15:24.163Z,996.57
2024-03-24T06:16:24.115Z,996.52
2024-03-24T06:17:24.113Z,996.51
2024-03-24T06:18:24.090Z,996.50
2024-03-24T06:19:24.087Z,996.50
2024-03-24T06:20:24.075Z,996.48
2024-03-24T06:21:24.050Z,996.49
2024-03-24T06:22:24.058Z,996.46
2024-03-24T06:23:24.039Z,996.50
2024-03-24T06:24:24.013Z,996.47
2024-03-24T06:25:24.074Z,996.46
2024-03-24T06:26:24.001Z,996.41
2024-03-24T06:27:23.990Z,996.47
2024-03-24T06:28:23.975Z,996.46
2024-03-24T06:29:23.993Z,996.48
2024-03-24T06:30:23.944Z,996.46
2024-03-24T06:31:23.943Z,996.48
2024-03-24T06:32:23.945Z,996.36
2024-03-24T06:33:23.906Z,996.41
2024-03-24T06:34:23.876Z,996.46
2024-03-24T06:35:23.864Z,996.44
2024-03-24T06:36:23.867Z,996.49
2024-03-24T06:37:23.866Z,996.39
2024-03-24T06:38:23.831Z,996.36
2024-03-24T06:39:23.835Z,996.35
2024-03-24T06:40:23.808Z,996.40
2024-03-24T06:41:23.818Z,996.33
2024-03-24T06:42:23.780Z,996.37
2024-03-24T06:43:23.791Z,996.38
2024-03-24T06:44:23.746Z,996.39
2024-03-24T06:45:23.733Z,996.41
2024-03-24T06:46:23.720Z,996.35
2024-03-24T06:47:23.744Z,996.41
2024-03-24T06:48:23.708Z,996.34
2024-03-24T06:49:23.699Z,996.35
2024-03-24T06:50:23.690Z,996.37
2024-03-24T06:51:23.662Z,996.31
2024-03-24T06:52:23.640Z,996.27
2024-03-24T06:53:23.642Z,996.34
2024-03-24T06:54:23.635Z,996.23
2024-03-24T06:55:23.652Z,996.37
2024-03-24T06:56:23.588Z,996.35
2024-03-24T06:57:23.591Z,996.28
2024-03-24T06:58:23.571Z,996.40
2024-03-24T06:59:23.581Z,996.35
2024-03-24T07:00:23.538Z,996.31
2024-03-24T07:01:23.543Z,996.29
2024-03-24T07:02:23.516Z,996.32
2024-03-24T07:03:23.542Z,996.36
2024-03-24T07:04:23.499Z,996.27
2024-03-24T07:05:23.515Z,996.27
2024-03-24T07:06:23.488Z,996.30
2024-03-24T07:07:23.475Z,996.21
2024-03-24T07:08:23.434Z,996.29
2024-03-24T07:09:23.457Z,996.31
2024-03-24T07:10:23.443Z,996.30
2024-03-24T07:11:23.420Z,996.24
2024-03-24T07:12:23.402Z,996.32
2024-03-24T07:13:23.389Z,996.29
2024-03-24T07:14:23.368Z,996.29
2024-03-24T07:15:23.373Z,996.34
2024-03-24T07:16:23.377Z,996.25
2024-03-24T07:17:23.324Z,996.32
2024-03-24T07:18:23.310Z,996.23
2024-03-24T07:19:23.299Z,996.33
2024-03-24T07:20:23.290Z,996.31
2024-03-24T07:21:23.278Z,996.24
2024-03-24T07:22:23.288Z,996.22
2024-03-24T07:23:23.251Z,996.22
2024-03-24T07:24:23.254Z,996.30
2024-03-24T07:25:23.272Z,996.13
2024-03-24T07:26:24.888Z,996.22
2024-03-24T07:27:23.194Z,996.19
2024-03-24T07:28:23.219Z,996.19
2024-03-24T07:29:23.170Z,996.16
2024-03-24T07:30:23.197Z,996.14
2024-03-24T07:31:23.178Z,996.11
2024-03-24T07:32:23.137Z,996.10
2024-03-24T07:33:23.118Z,996.14
2024-03-24T07:34:23.133Z,996.14
2024-03-24T07:35:23.106Z,996.15
2024-03-24T07:36:23.087Z,996.11
2024-03-24T07:37:23.096Z,996.14
2024-03-24T07:38:23.096Z,996.08
2024-03-24T07:39:23.043Z,996.16
2024-03-24T07:40:23.069Z,996.18
2024-03-24T07:41:23.038Z,996.07
2024-03-24T07:42:23.000Z,996.03
2024-03-24T07:43:23.050Z,996.09
2024-03-24T07:44:22.989Z,996.14
2024-03-24T07:45:22.979Z,996.02
2024-03-24T07:46:22.976Z,996.08
2024-03-24T07:47:22.946Z,996.10
2024-03-24T07:48:22.939Z,996.08
2024-03-24T07:49:22.968Z,996.10
2024-03-24T07:50:22.935Z,996.05
2024-03-24T07:51:22.885Z,996.03
2024-03-24T07:52:22.895Z,996.05
2024-03-24T07:53:22.862Z,996.00
2024-03-24T07:54:22.844Z,996.01
2024-03-24T07:55:22.906Z,995.99
2024-03-24T07:56:22.851Z,996.09
2024-03-24T07:57:22.813Z,996.00
2024-03-24T07:58:22.800Z,995.95
2024-03-24T07:59:22.785Z,995.93
2024-03-24T08:00:22.780Z,996.09
2024-03-24T08:01:22.847Z,995.99
2024-03-24T08:02:22.740Z,995.96
2024-03-24T08:03:22.746Z,995.99
2024-03-24T08:04:22.735Z,996.00
2024-03-24T08:05:22.716Z,995.91
2024-03-24T08:06:22.703Z,995.92
2024-03-24T08:07:22.708Z,995.95
2024-03-24T08:08:22.688Z,995.95
2024-03-24T08:09:22.670Z,995.91
2024-03-24T08:10:22.691Z,995.99
2024-03-24T08:11:22.625Z,995.92
2024-03-24T08:12:22.636Z,995.88
2024-03-24T08:13:22.644Z,995.91
2024-03-24T08:14:22.590Z,995.86
2024-03-24T08:15:22.594Z,995.90
2024-03-24T08:16:22.585Z,995.89
2024-03-24T08:17:22.572Z,995.83
2024-03-24T08:18:22.530Z,995.87
2024-03-24T08:19:22.575Z,995.85
2024-03-24T08:20:22.521Z,995.95
2024-03-24T08:21:22.501Z,995.92
2024-03-24T08:22:22.523Z,995.93
2024-03-24T08:23:22.483Z,995.84
2024-03-24T08:24:22.470Z,995.82
2024-03-24T08:25:22.480Z,995.78
2024-03-24T08:26:22.429Z,995.78
2024-03-24T08:27:22.447Z,995.73
2024-03-24T08:28:22.430Z,995.77
2024-03-24T08:29:22.402Z,995.78
2024-03-24T08:30:22.376Z,995.73
2024-03-24T08:31:22.384Z,995.75
2024-03-24T08:32:22.363Z,995.79
2024-03-24T08:33:22.380Z,995.69
2024-03-24T08:34:22.352Z,995.73
2024-03-24T08:35:24.314Z,995.73
2024-03-24T08:36:22.319Z,995.76
2024-03-24T08:37:22.346Z,995.75
2024-03-24T08:38:22.284Z,995.71
2024-03-24T08:39:22.292Z,995.78
2024-03-24T08:40:22.267Z,995.68
2024-03-24T08:41:22.239Z,995.69
2024-03-24T08:42:22.240Z,995.71
2024-03-24T08:43:22.232Z,995.67
2024-03-24T08:44:22.191Z,995.61
2024-03-24T08:45:22.201Z,995.67
2024-03-24T08:46:22.215Z,995.66
2024-03-24T08:47:22.160Z,995.68
2024-03-24T08:48:27.446Z,995.63
2024-03-24T08:49:22.175Z,995.68
2024-03-24T08:50:22.122Z,995.66
2024-03-24T08:51:22.131Z,995.64
2024-03-24T08:52:22.108Z,995.54
2024-03-24T08:53:22.083Z,995.64
2024-03-24T08:54:22.076Z,995.61
2024-03-24T08:55:22.092Z,995.65
2024-03-24T08:56:22.039Z,995.58
2024-03-24T08:57:22.044Z,995.56
2024-03-24T08:58:22.037Z,995.56
2024-03-24T08:59:22.016Z,995.55
2024-03-24T09:00:22.001Z,995.53
2024-03-24T09:01:22.050Z,995.55
2024-03-24T09:02:21.971Z,995.56
2024-03-24T09:03:21.969Z,995.55
2024-03-24T09:04:21.959Z,995.52
2024-03-24T09:05:21.928Z,995.54
2024-03-24T09:06:21.916Z,995.45
2024-03-24T09:07:21.929Z,995.44
2024-03-24T09:08:21.904Z,995.53
2024-03-24T09:09:23.596Z,995.47
2024-03-24T09:10:21.879Z,995.45
2024-03-24T09:11:21.855Z,995.46
2024-03-24T09:12:21.838Z,995.45
2024-03-24T09:13:21.823Z,995.40
2024-03-24T09:14:21.815Z,995.39
2024-03-24T09:15:21.810Z,995.43
2024-03-24T09:16:21.824Z,995.33
2024-03-24T09:17:21.785Z,995.36
2024-03-24T09:18:21.819Z,995.39
2024-03-24T09:19:21.758Z,995.38
2024-03-24T09:20:21.728Z,995.36
2024-03-24T09:21:21.744Z,995.41
2024-03-24T09:22:21.715Z,995.33
2024-03-24T09:23:21.720Z,995.38
2024-03-24T09:24:21.692Z,995.30
2024-03-24T09:25:21.687Z,995.36
2024-03-24T09:26:21.675Z,995.34
2024-03-24T09:27:21.659Z,995.24
2024-03-24T09:28:21.649Z,995.28
2024-03-24T09:29:21.629Z,995.20
2024-03-24T09:30:21.627Z,995.23
2024-03-24T09:31:21.599Z,995.23
2024-03-24T09:32:21.646Z,995.28
2024-03-24T09:33:21.610Z,995.18
2024-03-24T09:34:21.587Z,995.11
2024-03-24T09:35:21.555Z,995.05
2024-03-24T09:36:21.577Z,995.08
2024-03-24T09:37:21.596Z,995.08
2024-03-24T09:38:21.562Z,995.07
2024-03-24T09:39:21.515Z,995.10
2024-03-24T09:40:21.546Z,995.06
2024-03-24T09:41:21.476Z,995.01
2024-03-24T09:42:21.479Z,995.08
2024-03-24T09:43:21.466Z,995.04
2024-03-24T09:44:21.459Z,995.04
2024-03-24T09:45:21.445Z,995.06
2024-03-24T09:46:21.430Z,995.11
2024-03-24T09:47:21.442Z,994.99
2024-03-24T09:48:21.366Z,995.05
2024-03-24T09:49:21.377Z,995.08
2024-03-24T09:50:21.347Z,995.05
2024-03-24T09:51:21.350Z,995.09
2024-03-24T09:52:21.350Z,995.14
2024-03-24T09:53:21.337Z,995.15
2024-03-24T09:54:21.289Z,995.13
2024-03-24T09:55:21.304Z,995.10
2024-03-24T09:56:21.257Z,995.07
2024-03-24T09:57:21.268Z,995.09
2024-03-24T09:58:21.275Z,995.13
2024-03-24T09:59:21.253Z,995.10
2024-03-24T10:00:21.225Z,995.11
2024-03-24T10:01:21.281Z,995.15
2024-03-24T10:02:21.179Z,995.22
2024-03-24T10:03:21.204Z,995.27
2024-03-24T10:04:21.157Z,995.27
2024-03-24T10:05:21.166Z,995.23
2024-03-24T10:06:21.130Z,995.25
2024-03-24T10:07:21.136Z,995.25
2024-03-24T10:08:21.109Z,995.26
2024-03-24T10:09:21.110Z,995.30
2024-03-24T10:10:21.097Z,995.16
2024-03-24T10:11:21.106Z,995.15
2024-03-24T10:12:21.050Z,995.20
2024-03-24T10:13:21.057Z,995.25
2024-03-24T10:14:21.091Z,995.19
2024-03-24T10:15:21.050Z,995.23
2024-03-24T10:16:21.000Z,995.19
2024-03-24T10:17:22.906Z,995.17
2024-03-24T10:18:20.972Z,995.18
2024-03-24T10:19:20.985Z,995.17
2024-03-24T10:20:20.960Z,995.14
2024-03-24T10:21:20.951Z,995.12
2024-03-24T10:22:20.937Z,995.17
2024-03-24T10:23:20.914Z,995.14
2024-03-24T10:24:23.465Z,995.11
2024-03-24T10:25:20.892Z,994.98
2024-03-24T10:26:20.892Z,995.09
2024-03-24T10:27:20.887Z,995.10
2024-03-24T10:28:20.860Z,995.09
2024-03-24T10:29:20.848Z,995.08
2024-03-24T10:30:20.830Z,995.12
2024-03-24T10:31:20.802Z,995.10
2024-03-24T10:32:27.759Z,995.10
2024-03-24T10:33:20.807Z,995.13
2024-03-24T10:34:20.778Z,995.05
2024-03-24T10:35:20.779Z,995.14
2024-03-24T10:36:20.736Z,995.06
2024-03-24T10:37:20.744Z,995.12
2024-03-24T10:38:20.726Z,995.10
2024-03-24T10:39:20.726Z,995.10
2024-03-24T10:40:20.713Z,995.12
2024-03-24T10:41:20.691Z,995.16
2024-03-24T10:42:20.687Z,995.16
2024-03-24T10:43:20.654Z,995.19
2024-03-24T10:44:20.670Z,995.18
2024-03-24T10:45:20.633Z,995.15
2024-03-24T10:46:23.350Z,995.20
2024-03-24T10:47:20.602Z,995.21
2024-03-24T10:48:20.587Z,995.23
2024-03-24T10:49:20.601Z,995.19
2024-03-24T10:50:20.561Z,995.27
2024-03-24T10:51:20.538Z,995.29
2024-03-24T10:52:20.574Z,995.31
2024-03-24T10:53:20.516Z,995.29
2024-03-24T10:54:20.524Z,995.26
2024-03-24T10:55:22.955Z,995.21
2024-03-24T10:56:20.483Z,995.19
2024-03-24T10:57:20.505Z,995.30
2024-03-24T10:58:20.480Z,995.24
2024-03-24T10:59:20.461Z,995.28
2024-03-24T11:00:20.428Z,995.28
2024-03-24T11:01:20.421Z,995.26
2024-03-24T11:02:20.425Z,995.25
2024-03-24T11:03:20.418Z,995.25
2024-03-24T11:04:20.402Z,995.24
2024-03-24T11:05:21.436Z,995.24
2024-03-24T11:06:20.349Z,995.30
2024-03-24T11:07:20.333Z,995.23
2024-03-24T11:08:20.328Z,995.20
2024-03-24T11:09:20.353Z,995.29
2024-03-24T11:10:20.299Z,995.23
2024-03-24T11:11:20.302Z,995.13
2024-03-24T11:12:21.413Z,995.09
2024-03-24T11:13:20.293Z,995.16
2024-03-24T11:14:20.276Z,995.12
2024-03-24T11:15:20.245Z,995.17
2024-03-24T11:16:20.240Z,995.17
2024-03-24T11:17:20.229Z,995.15
2024-03-24T11:18:20.224Z,995.17
2024-03-24T11:19:20.216Z,995.07
2024-03-24T11:20:20.212Z,995.10
2024-03-24T11:21:20.170Z,995.13
2024-03-24T11:22:20.168Z,995.11
2024-03-24T11:23:20.149Z,995.11
2024-03-24T11:24:20.143Z,995.14
2024-03-24T11:25:20.106Z,995.14
2024-03-24T11:26:20.108Z,995.10
2024-03-24T11:27:20.101Z,995.09
2024-03-24T11:28:20.099Z,995.04
2024-03-24T11:29:20.056Z,995.01
2024-03-24T11:30:20.071Z,995.09
2024-03-24T11:31:20.031Z,995.11
2024-03-24T11:32:20.035Z,995.06
2024-03-24T11:33:20.032Z,995.03
2024-03-24T11:34:20.021Z,995.00
2024-03-24T11:35:20.003Z,995.09
2024-03-24T11:36:20.004Z,994.97
2024-03-24T11:37:19.949Z,995.03
2024-03-24T11:38:19.968Z,995.04
2024-03-24T11:39:19.924Z,995.04
2024-03-24T11:40:19.927Z,995.05
2024-03-24T11:41:19.890Z,994.96
2024-03-24T11:42:19.919Z,994.95
2024-03-24T11:43:19.898Z,994.95
2024-03-24T11:44:19.876Z,994.91
2024-03-24T11:45:19.859Z,994.96
2024-03-24T11:46:19.837Z,994.85
2024-03-24T11:47:19.843Z,994.87
2024-03-24T11:48:19.822Z,994.87
2024-03-24T11:49:19.802Z,994.80
2024-03-24T11:50:19.804Z,994.80
2024-03-24T11:51:19.815Z,994.79
2024-03-24T11:52:19.772Z,994.76
2024-03-24T11:53:19.760Z,994.75
2024-03-24T11:54:19.735Z,994.83
2024-03-24T11:55:19.727Z,994.78
2024-03-24T11:56:19.728Z,994.75
2024-03-24T11:57:19.702Z,994.70
2024-03-24T11:58:19.709Z,994.73
2024-03-24T11:59:19.669Z,994.68
2024-03-24T12:00:19.681Z,994.74
2024-03-24T12:01:19.652Z,994.66
2024-03-24T12:02:19.648Z,994.73
2024-03-24T12:03:19.645Z,994.69
2024-03-24T12:04:19.635Z,994.72
2024-03-24T12:05:19.588Z,994.67
2024-03-24T12:06:19.591Z,994.68
2024-03-24T12:07:19.564Z,994.63
2024-03-24T12:08:19.578Z,994.68
2024-03-24T12:09:19.553Z,994.70
2024-03-24T12:10:19.549Z,994.70
2024-03-24T12:11:19.544Z,994.72
2024-03-24T12:12:19.538Z,994.67
2024-03-24T12:13:19.486Z,994.68
2024-03-24T12:14:19.472Z,994.67
2024-03-24T12:15:19.454Z,994.70
2024-03-24T12:16:19.481Z,994.69
2024-03-24T12:17:19.445Z,994.75
2024-03-24T12:18:19.429Z,994.68
2024-03-24T12:19:19.403Z,994.72
2024-03-24T12:20:19.396Z,994.68
2024-03-24T12:21:19.393Z,994.72
2024-03-24T12:22:19.368Z,994.70
2024-03-24T12:23:19.378Z,994.69
2024-03-24T12:24:19.343Z,994.67
2024-03-24T12:25:19.341Z,994.66
2024-03-24T12:26:19.359Z,994.65
2024-03-24T12:27:19.318Z,994.63
2024-03-24T12:28:19.301Z,994.65